Time;durP1;ratioP1;P1;durP2;ratioP2;P2;SDS_P1;SDS_P2;PMS_P1;PMS_P2;Temp;Humidity;BMP_temperature;BMP_pressure;BME280_temperature;BME280_humidity;BME280_pressure;Samples;Min_cycle;Max_cycle;Signal;HPM_P1;HPM_P2
2023/09/25 00:01:32;;;;;;;7.18;3.38;;;14.80;99.90;;;;;;5072151;28;20028;-68
2023/09/25 00:03:58;;;;;;;7.10;3.25;;;14.80;99.90;;;;;;5072610;28;20025;-68
2023/09/25 00:06:24;;;;;;;6.55;3.47;;;14.70;99.90;;;;;;5072220;28;20024;-68
2023/09/25 00:08:50;;;;;;;5.05;3.17;;;14.70;99.90;;;;;;5071780;28;20479;-68
2023/09/25 00:11:16;;;;;;;5.18;2.90;;;14.70;99.90;;;;;;5071451;28;20048;-68
2023/09/25 00:13:42;;;;;;;8.75;3.20;;;14.60;99.90;;;;;;5072205;28;20474;-68
2023/09/25 00:16:14;;;;;;;7.53;3.83;;;14.60;99.90;;;;;;5072036;28;20029;-68
2023/09/25 00:18:41;;;;;;;6.63;3.28;;;14.60;99.90;;;;;;5072173;28;20119;-68
2023/09/25 00:21:07;;;;;;;4.93;3.08;;;14.60;99.90;;;;;;5071458;28;20413;-68
2023/09/25 00:23:32;;;;;;;6.20;3.17;;;14.50;99.90;;;;;;5070527;28;20016;-67
2023/09/25 00:26:04;;;;;;;5.00;3.10;;;14.50;99.90;;;;;;5071147;28;20020;-68
2023/09/25 00:28:31;;;;;;;6.22;2.97;;;14.50;99.90;;;;;;5069860;28;20037;-67
2023/09/25 00:30:56;;;;;;;5.40;3.10;;;14.40;99.90;;;;;;5072355;28;20031;-68
2023/09/25 00:33:22;;;;;;;9.32;4.22;;;14.40;99.90;;;;;;5067325;28;20095;-69
2023/09/25 00:35:47;;;;;;;7.35;3.10;;;14.40;99.90;;;;;;5071676;28;20048;-67
2023/09/25 00:38:13;;;;;;;7.82;3.20;;;14.30;99.90;;;;;;5071847;28;20036;-67
2023/09/25 00:40:39;;;;;;;7.78;3.30;;;14.30;99.90;;;;;;5071852;28;20028;-68
2023/09/25 00:43:08;;;;;;;6.28;3.63;;;14.30;99.90;;;;;;5069545;28;20078;-67
2023/09/25 00:45:38;;;;;;;5.10;3.28;;;14.30;99.90;;;;;;5071239;28;20020;-67
2023/09/25 00:48:05;;;;;;;8.23;3.72;;;14.30;99.90;;;;;;5071127;28;20336;-68
2023/09/25 00:50:31;;;;;;;6.72;3.33;;;14.30;99.90;;;;;;5071421;28;20040;-67
2023/09/25 00:53:08;;;;;;;6.03;2.92;;;14.30;99.90;;;;;;5076135;28;20024;-68
2023/09/25 00:55:34;;;;;;;6.28;3.55;;;14.20;99.90;;;;;;5067443;28;20032;-68
2023/09/25 00:58:00;;;;;;;5.63;3.00;;;14.20;99.90;;;;;;5071736;28;20067;-68
2023/09/25 01:00:26;;;;;;;5.45;2.88;;;14.30;99.90;;;;;;5071503;28;20429;-67
2023/09/25 01:02:51;;;;;;;6.65;3.10;;;14.30;99.90;;;;;;5071097;28;20074;-67
2023/09/25 01:05:17;;;;;;;5.93;3.05;;;14.20;99.90;;;;;;5071383;28;20040;-68
2023/09/25 01:07:43;;;;;;;7.07;3.13;;;14.30;99.90;;;;;;5070665;28;20024;-67
2023/09/25 01:10:16;;;;;;;7.03;3.13;;;14.20;99.90;;;;;;5062840;28;20035;-68
2023/09/25 01:12:42;;;;;;;7.32;3.25;;;14.30;99.90;;;;;;5071688;28;20031;-68
2023/09/25 01:15:09;;;;;;;5.63;3.10;;;14.30;99.90;;;;;;5071677;28;20245;-68
2023/09/25 01:17:35;;;;;;;4.55;2.75;;;14.30;99.90;;;;;;5071252;28;20033;-68
2023/09/25 01:20:05;;;;;;;7.82;3.47;;;14.20;99.90;;;;;;5070659;28;20031;-68
2023/09/25 01:22:31;;;;;;;6.03;3.08;;;14.20;99.90;;;;;;5069422;28;20031;-68
2023/09/25 01:24:56;;;;;;;6.85;3.47;;;14.20;99.90;;;;;;5071495;28;20024;-67
2023/09/25 01:27:22;;;;;;;9.43;3.30;;;14.20;99.90;;;;;;5071719;28;20385;-68
2023/09/25 01:29:47;;;;;;;6.55;2.95;;;14.20;99.90;;;;;;5071284;28;20456;-68
2023/09/25 01:32:13;;;;;;;10.52;3.25;;;14.20;99.90;;;;;;5071321;28;20105;-68
2023/09/25 01:34:38;;;;;;;6.63;3.28;;;14.20;99.90;;;;;;5071307;28;20031;-67
2023/09/25 01:37:04;;;;;;;7.32;3.08;;;14.20;99.90;;;;;;5071456;28;20099;-67
2023/09/25 01:39:35;;;;;;;9.10;3.15;;;14.20;99.90;;;;;;5069874;28;20025;-67
2023/09/25 01:42:00;;;;;;;7.05;2.80;;;14.20;99.90;;;;;;5066803;28;20025;-67
2023/09/25 01:44:26;;;;;;;6.38;3.10;;;14.20;99.90;;;;;;5071411;28;20091;-67
2023/09/25 01:46:52;;;;;;;4.40;2.70;;;14.20;99.90;;;;;;5071708;28;20441;-68
2023/09/25 01:49:17;;;;;;;5.85;3.05;;;14.10;99.90;;;;;;5070691;28;20469;-67
2023/09/25 01:51:46;;;;;;;6.93;3.03;;;14.10;99.90;;;;;;5071452;28;20024;-67
2023/09/25 01:54:12;;;;;;;7.93;2.95;;;14.10;99.90;;;;;;5069049;28;20061;-66
2023/09/25 01:56:37;;;;;;;7.60;3.03;;;14.10;99.90;;;;;;5071040;28;20027;-66
2023/09/25 01:59:03;;;;;;;6.30;3.38;;;14.10;99.90;;;;;;5067072;28;20040;-69
2023/09/25 02:01:28;;;;;;;4.88;2.95;;;14.00;99.90;;;;;;5062116;28;20473;-67
2023/09/25 02:03:54;;;;;;;7.90;2.95;;;14.00;99.90;;;;;;5073069;28;20495;-67
2023/09/25 02:06:20;;;;;;;4.50;2.90;;;14.00;99.90;;;;;;5073626;28;20483;-67
2023/09/25 02:08:46;;;;;;;7.85;2.90;;;14.00;99.90;;;;;;5086799;28;20491;-67
2023/09/25 02:11:11;;;;;;;8.85;3.08;;;13.90;99.90;;;;;;5073165;28;20082;-67
2023/09/25 02:13:37;;;;;;;7.07;3.08;;;13.90;99.90;;;;;;5079480;28;20059;-68
2023/09/25 02:16:03;;;;;;;7.35;2.88;;;13.90;99.90;;;;;;5082119;28;20067;-67
2023/09/25 02:18:29;;;;;;;8.25;2.80;;;13.90;99.90;;;;;;5067862;28;20148;-67
2023/09/25 02:20:55;;;;;;;6.95;3.10;;;13.90;99.90;;;;;;5081482;28;20033;-67
2023/09/25 02:23:20;;;;;;;8.52;3.30;;;13.80;99.90;;;;;;5083786;28;20036;-67
2023/09/25 02:25:46;;;;;;;6.45;3.35;;;13.90;99.90;;;;;;5077730;28;20024;-68
2023/09/25 02:28:12;;;;;;;7.97;3.17;;;13.80;99.90;;;;;;5077169;28;20033;-68
2023/09/25 02:30:37;;;;;;;6.75;3.05;;;13.80;99.90;;;;;;5088820;28;20028;-68
2023/09/25 02:33:03;;;;;;;7.43;3.03;;;13.80;99.90;;;;;;5079497;28;20020;-68
2023/09/25 02:35:29;;;;;;;5.22;3.15;;;13.80;99.90;;;;;;5086927;28;20025;-67
2023/09/25 02:37:54;;;;;;;7.53;3.33;;;13.80;99.90;;;;;;5086537;28;20024;-68
2023/09/25 02:40:20;;;;;;;10.00;3.25;;;13.80;99.90;;;;;;5079335;28;20029;-68
2023/09/25 02:42:45;;;;;;;6.55;3.33;;;13.70;99.90;;;;;;5080024;28;20464;-68
2023/09/25 02:45:11;;;;;;;5.78;3.33;;;13.70;99.90;;;;;;5083662;28;20422;-68
2023/09/25 02:47:37;;;;;;;9.40;3.85;;;13.70;99.90;;;;;;5085387;28;20074;-68
2023/09/25 02:50:03;;;;;;;6.43;3.40;;;13.60;99.90;;;;;;5087189;28;20445;-67
2023/09/25 02:52:28;;;;;;;8.93;3.72;;;13.70;99.90;;;;;;5078015;28;20464;-68
2023/09/25 02:54:54;;;;;;;5.63;3.10;;;13.70;99.90;;;;;;5086633;28;20031;-68
2023/09/25 02:57:20;;;;;;;4.78;2.83;;;13.60;99.90;;;;;;5082183;28;20028;-68
2023/09/25 02:59:45;;;;;;;7.63;3.33;;;13.60;99.90;;;;;;5082026;28;20036;-68
2023/09/25 03:02:11;;;;;;;6.55;3.22;;;13.60;99.90;;;;;;5068205;28;20444;-68
2023/09/25 03:04:37;;;;;;;6.13;3.22;;;13.60;99.90;;;;;;5088453;28;20119;-68
2023/09/25 03:07:03;;;;;;;7.72;3.38;;;13.50;99.90;;;;;;5078810;28;20028;-68
2023/09/25 03:09:28;;;;;;;13.20;3.13;;;13.60;99.90;;;;;;5085855;28;20040;-67
2023/09/25 03:11:54;;;;;;;5.47;3.15;;;13.50;99.90;;;;;;5082223;28;20384;-68
2023/09/25 03:14:20;;;;;;;7.80;3.67;;;13.50;99.90;;;;;;5084533;28;20036;-68
2023/09/25 03:16:46;;;;;;;8.55;3.40;;;13.50;99.90;;;;;;5090655;28;20039;-67
2023/09/25 03:19:12;;;;;;;6.00;3.00;;;13.50;99.90;;;;;;5079920;28;20028;-68
2023/09/25 03:21:41;;;;;;;6.18;3.40;;;13.50;99.90;;;;;;5084611;28;20035;-68
2023/09/25 03:24:07;;;;;;;7.32;3.35;;;13.50;99.90;;;;;;5087453;28;20024;-68
2023/09/25 03:26:32;;;;;;;6.32;3.15;;;13.50;99.90;;;;;;5072183;28;20176;-68
2023/09/25 03:28:58;;;;;;;9.00;3.15;;;13.50;99.90;;;;;;5089738;28;20476;-68
2023/09/25 03:31:23;;;;;;;7.25;3.10;;;13.50;99.90;;;;;;5073982;28;20361;-68
2023/09/25 03:33:50;;;;;;;5.70;3.35;;;13.50;99.90;;;;;;5078259;28;20473;-68
2023/09/25 03:36:15;;;;;;;5.70;3.30;;;13.50;99.90;;;;;;5088416;28;20020;-68
2023/09/25 03:38:41;;;;;;;4.25;2.70;;;13.50;99.90;;;;;;5076705;28;20039;-67
2023/09/25 03:41:07;;;;;;;5.72;3.30;;;13.50;99.90;;;;;;5088377;28;20020;-68
2023/09/25 03:43:32;;;;;;;5.07;3.25;;;13.50;99.90;;;;;;5074228;28;20025;-68
2023/09/25 03:45:58;;;;;;;6.53;3.42;;;13.40;99.90;;;;;;5085875;28;20028;-68
2023/09/25 03:48:24;;;;;;;9.13;3.35;;;13.40;99.90;;;;;;5077873;28;20044;-68
2023/09/25 03:50:49;;;;;;;7.40;3.42;;;13.40;99.90;;;;;;5089617;28;20052;-67
2023/09/25 03:53:15;;;;;;;4.30;2.90;;;13.40;99.90;;;;;;5079407;28;20020;-68
2023/09/25 03:55:41;;;;;;;8.40;3.22;;;13.40;99.90;;;;;;5083244;28;20082;-68
2023/09/25 03:58:06;;;;;;;6.88;3.20;;;13.40;99.90;;;;;;5086391;28;20028;-68
2023/09/25 04:00:32;;;;;;;7.80;3.55;;;13.40;99.90;;;;;;5076128;28;20028;-68
2023/09/25 04:02:58;;;;;;;7.38;3.35;;;13.40;99.90;;;;;;5089443;28;20028;-68
2023/09/25 04:05:24;;;;;;;5.72;3.00;;;13.40;99.90;;;;;;5080968;28;20077;-66
2023/09/25 04:07:49;;;;;;;8.15;3.38;;;13.40;99.90;;;;;;5093349;28;20032;-67
2023/09/25 04:10:15;;;;;;;6.78;3.33;;;13.40;99.90;;;;;;5078559;28;20072;-67
2023/09/25 04:12:40;;;;;;;7.00;3.30;;;13.30;99.90;;;;;;5089646;28;20103;-67
2023/09/25 04:15:13;;;;;;;8.02;3.50;;;13.30;99.90;;;;;;5078006;28;20024;-67
2023/09/25 04:17:42;;;;;;;5.45;2.95;;;13.30;99.90;;;;;;5083578;28;20078;-68
2023/09/25 04:20:16;;;;;;;6.25;3.38;;;13.30;99.90;;;;;;5079067;28;20020;-67
2023/09/25 04:22:42;;;;;;;8.20;3.70;;;13.30;99.90;;;;;;5089645;28;20111;-67
2023/09/25 04:25:10;;;;;;;9.10;3.60;;;13.30;99.90;;;;;;5078168;28;20115;-67
2023/09/25 04:27:36;;;;;;;7.00;3.35;;;13.30;99.90;;;;;;5083714;28;20078;-67
2023/09/25 04:30:03;;;;;;;4.60;3.10;;;13.20;99.90;;;;;;5085556;28;20043;-67
2023/09/25 04:32:28;;;;;;;6.75;3.60;;;13.20;99.90;;;;;;5076319;28;20029;-67
2023/09/25 04:34:54;;;;;;;7.15;3.33;;;13.20;99.90;;;;;;5079065;28;20047;-67
2023/09/25 04:37:20;;;;;;;6.63;3.17;;;13.20;99.90;;;;;;5085680;28;20081;-67
2023/09/25 04:39:46;;;;;;;7.82;3.78;;;13.20;99.90;;;;;;5083081;28;20016;-67
2023/09/25 04:42:11;;;;;;;8.23;3.50;;;13.20;99.90;;;;;;5078591;28;20380;-67
2023/09/25 04:44:37;;;;;;;8.50;3.40;;;13.20;99.90;;;;;;5089137;28;20395;-68
2023/09/25 04:47:04;;;;;;;9.27;3.55;;;13.20;99.90;;;;;;5076960;28;20435;-67
2023/09/25 04:49:30;;;;;;;11.05;3.92;;;13.20;99.90;;;;;;5076447;28;20060;-67
2023/09/25 04:51:56;;;;;;;6.30;4.22;;;13.20;99.90;;;;;;5068448;28;20032;-67
2023/09/25 04:54:21;;;;;;;7.22;3.65;;;13.20;99.90;;;;;;5087987;28;20028;-67
2023/09/25 04:56:47;;;;;;;7.28;4.07;;;13.20;99.90;;;;;;5075556;28;20043;-67
2023/09/25 04:59:13;;;;;;;6.90;4.00;;;13.20;99.90;;;;;;5086648;28;20024;-66
2023/09/25 05:01:39;;;;;;;6.80;3.75;;;13.20;99.90;;;;;;5076206;28;20070;-66
2023/09/25 05:04:05;;;;;;;6.57;3.53;;;13.20;99.90;;;;;;5086207;28;20137;-66
2023/09/25 05:06:31;;;;;;;6.80;3.53;;;13.20;99.90;;;;;;5075444;28;20029;-66
2023/09/25 05:08:57;;;;;;;8.32;3.58;;;13.10;99.90;;;;;;5072445;28;20119;-67
2023/09/25 05:11:22;;;;;;;9.25;3.47;;;13.10;99.90;;;;;;5072043;28;20396;-67
2023/09/25 05:13:49;;;;;;;6.18;3.70;;;13.10;99.90;;;;;;5070703;28;20060;-66
2023/09/25 05:16:15;;;;;;;6.93;3.30;;;13.10;99.90;;;;;;5072413;28;20025;-68
2023/09/25 05:18:41;;;;;;;8.13;3.67;;;13.10;99.90;;;;;;5078021;28;20461;-68
2023/09/25 05:21:06;;;;;;;7.63;3.50;;;13.10;99.90;;;;;;5077406;28;20028;-68
2023/09/25 05:23:32;;;;;;;5.95;3.58;;;13.10;99.90;;;;;;5083178;28;20040;-67
2023/09/25 05:25:59;;;;;;;9.05;3.97;;;13.10;99.90;;;;;;5076592;28;20035;-67
2023/09/25 05:28:24;;;;;;;7.15;3.80;;;13.10;99.90;;;;;;5087845;28;20036;-68
2023/09/25 05:30:53;;;;;;;7.47;3.75;;;13.10;99.90;;;;;;5074024;28;20438;-67
2023/09/25 05:33:19;;;;;;;7.43;4.25;;;13.10;99.90;;;;;;5084873;28;20039;-67
2023/09/25 05:35:45;;;;;;;7.05;4.00;;;13.10;99.90;;;;;;5081888;28;20020;-68
2023/09/25 05:38:10;;;;;;;7.85;3.72;;;13.10;99.90;;;;;;5077841;28;20384;-68
2023/09/25 05:40:36;;;;;;;6.63;3.50;;;13.10;99.90;;;;;;5088491;28;20525;-67
2023/09/25 05:43:02;;;;;;;8.15;3.90;;;13.10;99.90;;;;;;5076650;28;20056;-67
2023/09/25 05:45:28;;;;;;;8.40;4.18;;;13.10;99.90;;;;;;5083574;28;20071;-67
2023/09/25 05:47:53;;;;;;;11.02;4.55;;;13.20;99.90;;;;;;5068387;28;20024;-68
2023/09/25 05:50:19;;;;;;;8.20;3.30;;;13.20;99.90;;;;;;5070107;28;20043;-68
2023/09/25 05:52:44;;;;;;;10.70;4.22;;;13.20;99.90;;;;;;5089964;28;20024;-68
2023/09/25 05:55:10;;;;;;;13.50;4.38;;;13.20;99.90;;;;;;5089795;28;20464;-68
2023/09/25 05:57:36;;;;;;;9.00;4.50;;;13.20;99.90;;;;;;5090727;28;20024;-68
2023/09/25 06:00:09;;;;;;;8.35;3.42;;;13.20;99.90;;;;;;5089895;28;20492;-68
2023/09/25 06:02:35;;;;;;;8.93;4.68;;;13.20;99.90;;;;;;5081497;28;20456;-67
2023/09/25 06:05:01;;;;;;;9.15;3.92;;;13.20;99.90;;;;;;5071700;28;20139;-68
2023/09/25 06:07:26;;;;;;;10.38;4.40;;;13.20;99.90;;;;;;5074359;28;20032;-68
2023/09/25 06:09:52;;;;;;;9.10;3.85;;;13.20;99.90;;;;;;5073096;28;20044;-68
2023/09/25 06:12:18;;;;;;;8.60;3.90;;;13.30;99.90;;;;;;5074554;28;20465;-68
2023/09/25 06:14:44;;;;;;;9.15;3.83;;;13.30;99.90;;;;;;5075462;28;20157;-68
2023/09/25 06:17:09;;;;;;;9.90;3.90;;;13.30;99.90;;;;;;5074863;28;20086;-68
2023/09/25 06:19:38;;;;;;;9.27;4.15;;;13.40;99.90;;;;;;5055139;28;20033;-66
2023/09/25 06:22:03;;;;;;;12.98;3.70;;;13.40;99.90;;;;;;5055098;28;20033;-67
2023/09/25 06:24:29;;;;;;;5.60;3.42;;;13.50;99.90;;;;;;5055436;28;20098;-66
2023/09/25 06:26:55;;;;;;;7.82;3.83;;;13.50;99.90;;;;;;5055133;28;20036;-68
2023/09/25 06:29:24;;;;;;;6.88;3.47;;;13.50;99.90;;;;;;5055038;28;20041;-68
2023/09/25 06:31:49;;;;;;;7.47;3.67;;;13.50;99.90;;;;;;5064580;28;20028;-67
2023/09/25 06:34:15;;;;;;;5.47;3.13;;;13.50;99.90;;;;;;5058116;28;20083;-68
2023/09/25 06:36:40;;;;;;;6.55;3.38;;;13.50;99.90;;;;;;5058116;28;20024;-68
2023/09/25 06:39:08;;;;;;;6.90;3.60;;;13.60;99.90;;;;;;5075098;28;20021;-67
2023/09/25 06:41:34;;;;;;;8.27;3.25;;;13.60;99.90;;;;;;5059749;28;20033;-68
2023/09/25 06:44:00;;;;;;;9.93;3.35;;;13.60;99.90;;;;;;5054943;28;20039;-67
2023/09/25 06:46:25;;;;;;;8.88;4.30;;;13.60;99.90;;;;;;5054738;28;20099;-67
2023/09/25 06:48:51;;;;;;;8.13;4.20;;;13.70;99.90;;;;;;5054907;28;20068;-68
2023/09/25 06:51:17;;;;;;;8.57;3.63;;;13.70;99.90;;;;;;5054564;28;20413;-67
2023/09/25 06:53:43;;;;;;;8.88;3.63;;;13.80;99.90;;;;;;5054593;28;20033;-67
2023/09/25 06:56:10;;;;;;;9.13;3.88;;;13.80;99.90;;;;;;5058714;28;20354;-68
2023/09/25 06:58:36;;;;;;;9.55;3.80;;;13.90;99.90;;;;;;5054836;28;20106;-68
2023/09/25 07:01:02;;;;;;;11.38;4.25;;;14.00;99.90;;;;;;5054818;28;20040;-66
2023/09/25 07:03:27;;;;;;;6.80;3.65;;;14.00;99.90;;;;;;5054857;28;20029;-67
2023/09/25 07:05:53;;;;;;;10.13;3.30;;;14.10;99.90;;;;;;5054269;28;20111;-67
2023/09/25 07:08:18;;;;;;;6.00;3.85;;;14.20;99.90;;;;;;5054684;28;20028;-68
2023/09/25 07:10:46;;;;;;;7.88;4.00;;;14.20;99.90;;;;;;5054594;28;20397;-67
2023/09/25 07:13:12;;;;;;;7.30;3.30;;;14.30;99.90;;;;;;5054488;28;20424;-67
2023/09/25 07:15:38;;;;;;;8.88;4.10;;;14.40;99.90;;;;;;5063859;28;20028;-67
2023/09/25 07:18:04;;;;;;;6.50;3.33;;;14.50;99.90;;;;;;5072959;28;20115;-68
2023/09/25 07:20:30;;;;;;;8.65;3.50;;;14.60;99.90;;;;;;5074430;28;20115;-67
2023/09/25 07:22:55;;;;;;;9.07;3.92;;;14.70;99.90;;;;;;5074479;28;20028;-68
2023/09/25 07:25:21;;;;;;;9.85;3.63;;;14.90;99.90;;;;;;5074372;28;20457;-68
2023/09/25 07:27:46;;;;;;;8.82;3.70;;;15.00;99.90;;;;;;5074088;28;20444;-67
2023/09/25 07:30:12;;;;;;;7.38;3.65;;;15.10;99.90;;;;;;5074035;28;20476;-67
2023/09/25 07:32:39;;;;;;;6.65;3.60;;;15.20;99.90;;;;;;5074282;28;20029;-67
2023/09/25 07:35:09;;;;;;;7.90;3.38;;;15.30;99.90;;;;;;5073844;28;20115;-68
2023/09/25 07:37:35;;;;;;;7.03;3.85;;;15.50;99.90;;;;;;5074111;28;20079;-68
2023/09/25 07:40:07;;;;;;;7.50;4.18;;;15.70;99.90;;;;;;5073940;28;20464;-68
2023/09/25 07:42:33;;;;;;;6.25;3.20;;;15.90;99.90;;;;;;5074156;28;20048;-68
2023/09/25 07:44:58;;;;;;;7.40;3.42;;;16.30;99.90;;;;;;5073851;28;20063;-68
2023/09/25 07:47:24;;;;;;;7.30;3.22;;;16.60;99.90;;;;;;5073475;28;20028;-68
2023/09/25 07:49:49;;;;;;;9.02;3.40;;;16.80;99.90;;;;;;5073011;28;20173;-68
2023/09/25 07:52:15;;;;;;;5.47;3.20;;;17.00;99.90;;;;;;5073930;28;20153;-68
2023/09/25 07:54:48;;;;;;;10.10;4.40;;;17.20;99.90;;;;;;5073768;28;20116;-68
2023/09/25 07:57:15;;;;;;;6.05;3.08;;;17.40;99.90;;;;;;5073936;28;20047;-68
2023/09/25 07:59:42;;;;;;;7.25;3.00;;;17.60;99.90;;;;;;5073433;28;20381;-68
2023/09/25 08:02:07;;;;;;;6.22;2.78;;;17.80;99.90;;;;;;5073475;28;20021;-67
2023/09/25 08:04:35;;;;;;;6.95;2.90;;;17.90;99.90;;;;;;5073443;28;20036;-69
2023/09/25 08:07:04;;;;;;;12.68;3.38;;;17.80;99.90;;;;;;5073464;28;20036;-68
2023/09/25 08:09:31;;;;;;;9.15;3.13;;;17.90;99.90;;;;;;5073202;28;20047;-67
2023/09/25 08:11:57;;;;;;;7.20;3.60;;;18.10;99.90;;;;;;5073252;28;20032;-68
2023/09/25 08:14:23;;;;;;;9.43;4.22;;;18.10;99.90;;;;;;5073264;28;20033;-68
2023/09/25 08:16:49;;;;;;;8.65;4.80;;;18.30;99.90;;;;;;5073128;28;20028;-67
2023/09/25 08:19:17;;;;;;;9.30;4.50;;;18.90;99.90;;;;;;5073127;28;20516;-68
2023/09/25 08:21:43;;;;;;;13.40;6.43;;;19.30;99.90;;;;;;5073295;28;20111;-66
2023/09/25 08:24:09;;;;;;;13.30;7.40;;;19.60;99.90;;;;;;5073657;28;20108;-67
2023/09/25 08:26:34;;;;;;;16.90;8.57;;;19.80;99.90;;;;;;5073295;28;20056;-67
2023/09/25 08:29:02;;;;;;;23.35;12.35;;;20.20;99.90;;;;;;5072359;28;20494;-67
2023/09/25 08:31:28;;;;;;;17.02;9.15;;;20.70;99.90;;;;;;5064126;28;20032;-68
2023/09/25 08:33:53;;;;;;;14.00;6.75;;;21.30;99.90;;;;;;5072978;28;20036;-68
2023/09/25 08:36:19;;;;;;;13.57;6.70;;;21.20;99.90;;;;;;5068327;28;20074;-69
2023/09/25 08:38:46;;;;;;;10.52;4.15;;;21.30;99.90;;;;;;5072641;28;20036;-68
2023/09/25 08:41:13;;;;;;;8.40;4.07;;;21.30;99.90;;;;;;5072875;28;20431;-66
2023/09/25 08:43:40;;;;;;;9.38;3.78;;;21.40;99.90;;;;;;5072551;28;20029;-67
2023/09/25 08:46:06;;;;;;;7.13;3.70;;;21.30;99.90;;;;;;5072314;28;20052;-68
2023/09/25 08:48:32;;;;;;;7.18;3.42;;;21.40;99.90;;;;;;5072208;28;20068;-67
2023/09/25 08:50:58;;;;;;;7.15;3.53;;;21.10;99.90;;;;;;5072571;28;20170;-67
2023/09/25 08:53:24;;;;;;;6.05;2.95;;;21.00;99.90;;;;;;5072718;28;20029;-67
2023/09/25 08:55:51;;;;;;;6.93;2.88;;;21.30;99.90;;;;;;5072009;28;20079;-68
2023/09/25 08:58:17;;;;;;;7.10;2.67;;;21.80;99.90;;;;;;5071825;28;20032;-68
2023/09/25 09:00:42;;;;;;;7.95;2.40;;;22.40;98.80;;;;;;5052673;28;20032;-68
2023/09/25 09:03:08;;;;;;;5.82;2.95;;;22.80;98.40;;;;;;5052593;28;20025;-68
2023/09/25 09:05:34;;;;;;;6.30;2.58;;;23.50;97.90;;;;;;5052442;28;20025;-68
2023/09/25 09:08:02;;;;;;;6.13;2.75;;;24.00;96.60;;;;;;5055297;28;20029;-68
2023/09/25 09:10:35;;;;;;;7.57;2.75;;;23.90;96.80;;;;;;5072386;28;20139;-68
2023/09/25 09:13:01;;;;;;;6.95;3.45;;;24.40;96.50;;;;;;5071368;28;20067;-68
2023/09/25 09:15:30;;;;;;;8.25;2.78;;;25.00;95.80;;;;;;5072490;28;20028;-67
2023/09/25 09:17:57;;;;;;;8.18;2.63;;;25.00;95.70;;;;;;5072459;28;20115;-68
2023/09/25 09:20:34;;;;;;;4.40;2.28;;;25.40;95.00;;;;;;5072397;28;20036;-69
2023/09/25 09:22:59;;;;;;;7.82;2.38;;;25.60;94.60;;;;;;5072456;28;20087;-68
2023/09/25 09:25:27;;;;;;;6.50;2.80;;;25.20;94.70;;;;;;5072037;28;20480;-68
2023/09/25 09:27:53;;;;;;;7.15;2.92;;;24.90;95.50;;;;;;5072027;28;20028;-68
2023/09/25 09:30:24;;;;;;;5.78;2.70;;;24.50;95.80;;;;;;5067482;28;20170;-67
2023/09/25 09:32:53;;;;;;;7.95;2.90;;;24.30;95.70;;;;;;5072058;28;20020;-67
2023/09/25 09:35:22;;;;;;;5.85;2.70;;;24.20;95.90;;;;;;5071988;28;20036;-68
2023/09/25 09:37:50;;;;;;;7.13;2.80;;;24.50;96.20;;;;;;5069939;28;20025;-69
2023/09/25 09:40:17;;;;;;;8.35;3.13;;;24.80;96.20;;;;;;5077068;28;20090;-68
2023/09/25 09:42:43;;;;;;;5.53;2.47;;;25.10;95.90;;;;;;5072626;28;20025;-68
2023/09/25 09:45:09;;;;;;;8.85;2.70;;;25.90;94.80;;;;;;5085783;28;20127;-68
2023/09/25 09:47:42;;;;;;;6.78;2.63;;;26.50;94.50;;;;;;5075818;28;20036;-69
2023/09/25 09:50:09;;;;;;;6.43;2.60;;;26.80;93.80;;;;;;5069873;28;20052;-68
2023/09/25 09:52:36;;;;;;;7.80;2.70;;;26.70;94.20;;;;;;5066447;28;20043;-67
2023/09/25 09:55:04;;;;;;;6.82;2.85;;;26.10;94.40;;;;;;5055898;28;20029;-67
2023/09/25 09:57:31;;;;;;;5.40;2.53;;;25.50;94.60;;;;;;5071726;28;20024;-67
2023/09/25 09:59:57;;;;;;;6.82;2.80;;;25.00;95.00;;;;;;5064119;28;20525;-68
2023/09/25 10:02:23;;;;;;;4.63;2.78;;;24.80;95.80;;;;;;5058363;28;20036;-68
2023/09/25 10:04:49;;;;;;;6.50;3.13;;;24.80;96.00;;;;;;5059229;28;20533;-68
2023/09/25 10:07:15;;;;;;;7.57;2.65;;;25.20;96.10;;;;;;5063306;28;20116;-68
2023/09/25 10:10:05;;;;;;;6.35;2.80;;;25.70;94.90;;;;;;5069689;28;20040;-68
2023/09/25 10:12:46;;;;;;;5.43;2.55;;;25.80;95.50;;;;;;5066047;28;20458;-68
2023/09/25 10:15:16;;;;;;;6.70;2.78;;;26.40;94.10;;;;;;5075241;28;20388;-68
2023/09/25 10:17:45;;;;;;;4.85;2.40;;;26.60;94.20;;;;;;5075612;28;20040;-69
2023/09/25 10:20:36;;;;;;;5.65;2.72;;;26.70;93.80;;;;;;5075483;28;20020;-68
2023/09/25 10:23:18;;;;;;;8.32;2.30;;;27.40;94.10;;;;;;5068812;28;20036;-68
2023/09/25 10:25:50;;;;;;;5.63;2.30;;;28.00;92.70;;;;;;5057049;28;20161;-69
2023/09/25 10:28:27;;;;;;;6.63;2.40;;;27.70;92.80;;;;;;5077478;28;20385;-68
2023/09/25 10:31:01;;;;;;;6.97;2.40;;;27.20;93.20;;;;;;5055195;28;20124;-68
2023/09/25 10:33:37;;;;;;;8.50;2.95;;;26.80;93.70;;;;;;5054528;28;20029;-67
2023/09/25 10:36:04;;;;;;;7.20;2.40;;;26.40;94.40;;;;;;5061000;28;20032;-68
2023/09/25 10:38:36;;;;;;;11.57;3.08;;;25.80;94.50;;;;;;5074262;28;20028;-69
2023/09/25 10:41:05;;;;;;;10.65;3.55;;;25.20;95.20;;;;;;5060618;28;20029;-69
2023/09/25 10:43:31;;;;;;;8.93;3.55;;;24.90;95.70;;;;;;5055111;28;20033;-68
2023/09/25 10:45:57;;;;;;;6.93;3.17;;;24.70;95.90;;;;;;5060185;28;20120;-68
2023/09/25 10:48:25;;;;;;;8.63;2.97;;;24.70;96.60;;;;;;5064797;28;20100;-68
2023/09/25 10:50:51;;;;;;;9.25;2.90;;;24.50;96.80;;;;;;5070242;28;20075;-68
2023/09/25 10:53:17;;;;;;;6.40;2.67;;;24.60;97.30;;;;;;5073510;28;20049;-70
2023/09/25 10:55:43;;;;;;;5.70;2.47;;;24.70;96.80;;;;;;5054777;28;20512;-69
2023/09/25 10:58:12;;;;;;;9.43;2.78;;;24.80;96.90;;;;;;5054898;28;20037;-69
2023/09/25 11:00:39;;;;;;;5.85;2.63;;;24.90;96.70;;;;;;5055190;28;20116;-68
2023/09/25 11:03:05;;;;;;;10.45;2.92;;;24.80;96.40;;;;;;5054523;28;20322;-69
2023/09/25 11:05:33;;;;;;;7.25;2.75;;;24.60;96.80;;;;;;5054475;28;20098;-69
2023/09/25 11:07:59;;;;;;;6.63;2.33;;;24.60;97.30;;;;;;5055140;28;20025;-69
2023/09/25 11:10:33;;;;;;;10.32;2.58;;;24.70;96.50;;;;;;5054310;28;20512;-70
2023/09/25 11:13:00;;;;;;;6.82;2.53;;;24.60;96.80;;;;;;5054937;28;20040;-68
2023/09/25 11:15:27;;;;;;;9.57;3.00;;;24.40;97.20;;;;;;5072233;28;20086;-68
2023/09/25 11:17:55;;;;;;;8.60;3.00;;;24.30;97.20;;;;;;5065008;28;20029;-69
2023/09/25 11:20:29;;;;;;;6.68;3.30;;;24.30;97.90;;;;;;5055952;28;20468;-69
2023/09/25 11:23:13;;;;;;;9.52;2.85;;;24.50;97.70;;;;;;5070163;28;20036;-69
2023/09/25 11:25:46;;;;;;;7.85;3.00;;;24.70;97.50;;;;;;5070266;28;20101;-69
2023/09/25 11:28:32;;;;;;;7.15;2.70;;;24.90;97.10;;;;;;5067147;28;20123;-68
2023/09/25 11:31:02;;;;;;;8.20;2.80;;;24.90;96.90;;;;;;5068491;28;20033;-69
2023/09/25 11:33:28;;;;;;;9.45;3.10;;;25.00;97.10;;;;;;5053954;28;20434;-69
2023/09/25 11:35:54;;;;;;;6.47;2.70;;;25.10;97.50;;;;;;5054281;28;20029;-70
2023/09/25 11:38:24;;;;;;;6.88;2.70;;;25.20;97.10;;;;;;5059075;28;20124;-68
2023/09/25 11:40:50;;;;;;;8.07;2.80;;;25.00;97.00;;;;;;5053545;28;20034;-68
2023/09/25 11:43:16;;;;;;;8.27;3.20;;;24.80;97.40;;;;;;5054069;28;20036;-68
2023/09/25 11:45:42;;;;;;;6.18;2.90;;;24.60;97.80;;;;;;5053997;28;20037;-69
2023/09/25 11:48:10;;;;;;;8.50;3.53;;;24.40;97.90;;;;;;5059599;28;20112;-68
2023/09/25 11:50:36;;;;;;;6.63;3.03;;;24.50;98.40;;;;;;5070436;28;20083;-68
2023/09/25 11:53:01;;;;;;;5.15;2.80;;;24.60;98.40;;;;;;5053556;28;20441;-68
2023/09/25 11:55:28;;;;;;;8.63;2.85;;;24.60;98.10;;;;;;5053683;28;20381;-68
2023/09/25 11:57:54;;;;;;;8.15;3.00;;;24.70;98.30;;;;;;5053828;28;20385;-68
2023/09/25 12:00:21;;;;;;;8.38;3.10;;;24.80;98.10;;;;;;5053300;28;20028;-68
2023/09/25 12:02:48;;;;;;;6.10;3.10;;;24.80;98.00;;;;;;5055750;28;20025;-69
2023/09/25 12:05:18;;;;;;;7.88;2.60;;;24.70;97.80;;;;;;5065925;28;20134;-69
2023/09/25 12:07:44;;;;;;;8.57;3.10;;;24.50;98.10;;;;;;5093532;28;20062;-68
2023/09/25 12:10:17;;;;;;;8.18;2.70;;;24.60;97.80;;;;;;5093634;28;20032;-69
2023/09/25 12:12:44;;;;;;;12.48;3.25;;;24.50;99.10;;;;;;5092455;28;20028;-69
2023/09/25 12:15:12;;;;;;;7.18;2.80;;;24.70;98.70;;;;;;5093565;28;20540;-68
2023/09/25 12:17:38;;;;;;;10.82;3.10;;;25.00;98.30;;;;;;5088387;28;20465;-69
2023/09/25 12:20:12;;;;;;;7.90;2.60;;;25.20;97.90;;;;;;5067401;28;20035;-68
2023/09/25 12:22:42;;;;;;;8.73;3.13;;;25.20;97.90;;;;;;5072950;28;20545;-69
2023/09/25 12:25:11;;;;;;;7.05;2.55;;;25.10;98.00;;;;;;5073013;28;20020;-70
2023/09/25 12:27:41;;;;;;;10.52;3.08;;;25.00;97.80;;;;;;5073193;28;20027;-67
2023/09/25 12:30:10;;;;;;;9.57;3.40;;;24.80;98.70;;;;;;5072627;28;20071;-68
2023/09/25 12:32:38;;;;;;;9.38;3.03;;;24.70;98.70;;;;;;5072338;28;20043;-67
2023/09/25 12:35:05;;;;;;;6.78;2.67;;;24.40;98.70;;;;;;5072627;28;20021;-68
2023/09/25 12:37:31;;;;;;;8.45;2.97;;;24.10;99.40;;;;;;5072971;28;20055;-68
2023/09/25 12:39:57;;;;;;;8.00;3.03;;;23.90;99.90;;;;;;5072654;28;20465;-69
2023/09/25 12:42:22;;;;;;;7.50;2.80;;;23.80;99.90;;;;;;5072694;28;20429;-68
2023/09/25 12:44:48;;;;;;;8.40;2.70;;;23.90;99.90;;;;;;5072325;28;20028;-70